Terminal Aerodrome Forecast
Issued by NWS Wilmington, NC

Current Version | Previous Version | Graphics & Text | Print | Product List | Glossary Off
Versions: 1 2 3 4 5 6 7 8 9 10 11 12 13 14 15 16 17 18 19 20 21 22 23

583
FTUS42 KILM 012154 AAB
TAFILM
TAF AMD
KILM 012154Z 0122/0218 20009KT P6SM VCTS BKN035CB
      TEMPO 0122/0123 6SM -SHRA BR BKN022
     FM020200 21004KT P6SM BKN250
     FM021200 24005KT P6SM VCTS BKN025CB=

USA.gov is the U.S. government's official web portal to all federal, state and local government web resources and services.